createdAt,value
2023-10-27T00:01:39.378Z,10.84
2023-10-27T00:04:11.431Z,10.79
2023-10-27T00:06:43.402Z,10.73
2023-10-27T00:09:15.220Z,10.68
2023-10-27T00:11:46.990Z,10.63
2023-10-27T00:14:18.796Z,10.56
2023-10-27T00:16:52.158Z,10.51
2023-10-27T00:19:24.010Z,10.45
2023-10-27T00:21:55.829Z,10.40
2023-10-27T00:24:27.674Z,10.33
2023-10-27T00:26:59.461Z,10.27
2023-10-27T00:29:31.289Z,10.23
2023-10-27T00:32:03.129Z,10.19
2023-10-27T00:34:35.025Z,10.14
2023-10-27T00:37:07.287Z,10.10
2023-10-27T00:39:39.986Z,10.06
2023-10-27T00:42:11.941Z,10.02
2023-10-27T00:44:43.985Z,9.97
2023-10-27T00:47:15.827Z,9.94
2023-10-27T00:49:47.838Z,9.89
2023-10-27T00:52:21.955Z,9.85
2023-10-27T00:54:55.235Z,9.80
2023-10-27T00:57:27.648Z,9.76
2023-10-27T01:00:00.036Z,9.71
2023-10-27T01:02:31.937Z,9.67
2023-10-27T01:05:04.068Z,9.64
2023-10-27T01:07:37.069Z,9.58
2023-10-27T01:10:10.380Z,9.53
2023-10-27T01:12:47.090Z,9.48
2023-10-27T01:15:19.481Z,9.42
2023-10-27T01:17:51.362Z,9.40
2023-10-27T01:20:23.342Z,9.36
2023-10-27T01:22:55.238Z,9.34
2023-10-27T01:25:27.068Z,9.31
2023-10-27T01:27:59.149Z,9.27
2023-10-27T01:30:31.004Z,9.24
2023-10-27T01:33:02.940Z,9.19
2023-10-27T01:35:36.198Z,9.15
2023-10-27T01:38:08.011Z,9.11
2023-10-27T01:40:39.881Z,9.07
2023-10-27T01:43:11.853Z,9.03
2023-10-27T01:45:43.664Z,8.98
2023-10-27T01:48:15.485Z,8.95
2023-10-27T01:50:47.270Z,8.91
2023-10-27T01:53:19.094Z,8.88
2023-10-27T01:55:50.901Z,8.85
2023-10-27T01:58:22.746Z,8.82
2023-10-27T02:00:54.611Z,8.80
2023-10-27T02:03:26.422Z,8.77
2023-10-27T02:05:58.291Z,8.73
2023-10-27T02:08:30.210Z,8.69
2023-10-27T02:11:02.428Z,8.67
2023-10-27T02:13:34.358Z,8.63
2023-10-27T02:16:06.658Z,8.58
2023-10-27T02:18:38.543Z,8.56
2023-10-27T02:21:10.361Z,8.52
2023-10-27T02:23:42.175Z,8.48
2023-10-27T02:26:15.011Z,8.43
2023-10-27T02:28:46.893Z,8.39
2023-10-27T02:31:19.386Z,8.35
2023-10-27T02:33:51.444Z,8.32
2023-10-27T02:36:23.264Z,8.27
2023-10-27T02:38:55.050Z,8.23
2023-10-27T02:41:26.892Z,8.20
2023-10-27T02:44:00.425Z,8.17
2023-10-27T02:46:32.666Z,8.14
2023-10-27T02:49:05.286Z,8.12
2023-10-27T02:51:37.173Z,8.09
2023-10-27T02:54:08.995Z,8.07
2023-10-27T02:56:40.766Z,8.07
2023-10-27T02:59:12.569Z,8.06
2023-10-27T03:01:47.238Z,8.03
2023-10-27T03:04:20.560Z,8.01
2023-10-27T03:06:52.476Z,7.98
2023-10-27T03:09:24.247Z,7.96
2023-10-27T03:11:56.173Z,7.94
2023-10-27T03:14:27.973Z,7.92
2023-10-27T03:16:59.713Z,7.90
2023-10-27T03:19:31.852Z,7.88
2023-10-27T03:22:05.797Z,7.85
2023-10-27T03:24:37.652Z,7.83
2023-10-27T03:27:09.685Z,7.82
2023-10-27T03:29:42.385Z,7.82
2023-10-27T03:32:14.306Z,7.80
2023-10-27T03:34:47.352Z,7.78
2023-10-27T03:37:19.438Z,7.78
2023-10-27T03:39:52.289Z,7.78
2023-10-27T03:42:24.626Z,7.79
2023-10-27T03:44:56.496Z,7.77
2023-10-27T03:47:28.307Z,7.78
2023-10-27T03:50:00.336Z,7.79
2023-10-27T03:52:32.252Z,7.79
2023-10-27T03:55:04.339Z,7.79
2023-10-27T03:57:37.790Z,7.80
2023-10-27T04:00:11.295Z,7.81
2023-10-27T04:02:43.206Z,7.81
2023-10-27T04:05:15.239Z,7.82
2023-10-27T04:07:47.074Z,7.82
2023-10-27T04:10:21.057Z,7.83
2023-10-27T04:12:53.686Z,7.83
2023-10-27T04:15:25.465Z,7.81
2023-10-27T04:17:57.643Z,7.83
2023-10-27T04:20:30.988Z,7.84
2023-10-27T04:23:02.885Z,7.86
2023-10-27T04:25:36.513Z,7.87
2023-10-27T04:28:08.560Z,7.90
2023-10-27T04:30:40.399Z,7.91
2023-10-27T04:33:12.593Z,7.95
2023-10-27T04:35:44.545Z,7.96
2023-10-27T04:38:16.360Z,7.98
2023-10-27T04:40:49.939Z,8.00
2023-10-27T04:43:22.546Z,8.01
2023-10-27T04:45:54.498Z,8.01
2023-10-27T04:48:26.802Z,8.01
2023-10-27T04:51:00.064Z,8.02
2023-10-27T04:53:32.241Z,8.03
2023-10-27T04:56:04.222Z,8.05
2023-10-27T04:58:36.184Z,8.06
2023-10-27T05:01:08.197Z,8.09
2023-10-27T05:03:40.072Z,8.12
2023-10-27T05:06:12.424Z,8.16
2023-10-27T05:08:44.213Z,8.18
2023-10-27T05:11:16.147Z,8.19
2023-10-27T05:13:48.320Z,8.21
2023-10-27T05:16:20.395Z,8.24
2023-10-27T05:18:52.375Z,8.26
2023-10-27T05:21:27.916Z,8.27
2023-10-27T05:23:59.794Z,8.26
2023-10-27T05:26:32.077Z,8.26
2023-10-27T05:29:03.906Z,8.27
2023-10-27T05:31:36.061Z,8.27
2023-10-27T05:34:08.112Z,8.27
2023-10-27T05:36:39.974Z,8.26
2023-10-27T05:39:17.414Z,8.27
2023-10-27T05:41:49.959Z,8.26
2023-10-27T05:44:21.828Z,8.27
2023-10-27T05:46:53.782Z,8.28
2023-10-27T05:49:26.374Z,8.28
2023-10-27T05:51:59.274Z,8.29
2023-10-27T05:54:31.202Z,8.30
2023-10-27T05:57:04.196Z,8.32
2023-10-27T05:59:36.034Z,8.35
2023-10-27T06:02:15.200Z,8.39
2023-10-27T06:04:48.081Z,8.43
2023-10-27T06:07:20.129Z,8.47
2023-10-27T06:09:51.973Z,8.53
2023-10-27T06:12:23.736Z,8.58
2023-10-27T06:14:55.799Z,8.63
2023-10-27T06:17:27.854Z,8.69
2023-10-27T06:20:13.221Z,8.72
2023-10-27T06:22:49.280Z,8.77
2023-10-27T06:25:21.348Z,8.81
2023-10-27T06:27:56.804Z,8.86
2023-10-27T06:30:28.809Z,8.90
2023-10-27T06:33:01.284Z,8.95
2023-10-27T06:35:34.006Z,8.98
2023-10-27T06:38:06.061Z,9.00
2023-10-27T06:40:37.897Z,9.03
2023-10-27T06:43:09.928Z,9.06
2023-10-27T06:45:41.799Z,9.12
2023-10-27T06:48:13.742Z,9.16
2023-10-27T06:50:45.901Z,9.21
2023-10-27T06:53:18.047Z,9.26
2023-10-27T06:55:49.840Z,9.30
2023-10-27T06:58:21.757Z,9.33
2023-10-27T07:00:53.686Z,9.38
2023-10-27T07:03:31.694Z,9.43
2023-10-27T07:06:05.552Z,9.47
2023-10-27T07:08:38.931Z,9.52
2023-10-27T07:11:11.118Z,9.56
2023-10-27T07:13:43.501Z,9.58
2023-10-27T07:16:15.430Z,9.60
2023-10-27T07:18:47.528Z,9.64
2023-10-27T07:21:19.372Z,9.66
2023-10-27T07:23:51.573Z,9.68
2023-10-27T07:26:23.376Z,9.69
2023-10-27T07:28:55.199Z,9.69
2023-10-27T07:31:27.196Z,9.73
2023-10-27T07:33:59.795Z,9.75
2023-10-27T07:36:31.710Z,9.77
2023-10-27T07:39:03.731Z,9.81
2023-10-27T07:41:38.602Z,9.83
2023-10-27T07:44:10.633Z,9.88
2023-10-27T07:46:42.474Z,9.92
2023-10-27T07:49:14.459Z,9.96
2023-10-27T07:51:46.305Z,10.00
2023-10-27T07:54:18.167Z,10.04
2023-10-27T07:56:49.981Z,10.08
2023-10-27T07:59:22.108Z,10.13
2023-10-27T08:01:53.990Z,10.18
2023-10-27T08:04:26.349Z,10.25
2023-10-27T08:06:58.354Z,10.31
2023-10-27T08:09:30.918Z,10.36
2023-10-27T08:12:03.512Z,10.39
2023-10-27T08:14:36.237Z,10.42
2023-10-27T08:17:08.133Z,10.46
2023-10-27T08:19:40.954Z,10.53
2023-10-27T08:22:12.873Z,10.59
2023-10-27T08:24:44.920Z,10.65
2023-10-27T08:27:17.058Z,10.71
2023-10-27T08:29:48.976Z,10.77
2023-10-27T08:32:20.841Z,10.82
2023-10-27T08:34:52.687Z,10.86
2023-10-27T08:40:02.299Z,10.96
2023-10-27T08:42:34.726Z,11.00
2023-10-27T08:45:08.194Z,11.06
2023-10-27T08:47:40.173Z,11.11
2023-10-27T08:50:13.321Z,11.15
2023-10-27T08:52:45.836Z,11.20
2023-10-27T08:55:18.435Z,11.24
2023-10-27T08:57:50.300Z,11.30
2023-10-27T09:00:22.159Z,11.34
2023-10-27T09:02:54.078Z,11.39
2023-10-27T09:05:26.467Z,11.41
2023-10-27T09:07:58.432Z,11.44
2023-10-27T09:10:30.428Z,11.46
2023-10-27T09:13:02.647Z,11.49
2023-10-27T09:15:46.736Z,11.53
2023-10-27T09:18:19.862Z,11.57
2023-10-27T09:20:52.970Z,11.61
2023-10-27T09:23:24.843Z,11.63
2023-10-27T09:26:00.462Z,11.66
2023-10-27T09:28:32.500Z,11.67
2023-10-27T09:31:05.137Z,11.70
2023-10-27T09:33:37.365Z,11.75
2023-10-27T09:36:09.605Z,11.78
2023-10-27T09:38:41.464Z,11.80
2023-10-27T09:41:15.962Z,11.83
2023-10-27T09:43:51.607Z,11.86
2023-10-27T09:46:24.339Z,11.90
2023-10-27T09:49:12.618Z,11.94
2023-10-27T09:51:48.930Z,11.97
2023-10-27T09:54:21.040Z,12.01
2023-10-27T09:56:52.960Z,12.05
2023-10-27T09:59:25.178Z,12.08
2023-10-27T10:01:57.671Z,12.11
2023-10-27T10:05:01.051Z,12.15
2023-10-27T10:07:34.745Z,12.19
2023-10-27T10:10:30.482Z,12.21
2023-10-27T10:13:05.028Z,12.25
2023-10-27T10:15:38.037Z,12.28
2023-10-27T10:18:11.012Z,12.33
2023-10-27T10:21:01.311Z,12.37
2023-10-27T10:24:16.496Z,12.41
2023-10-27T10:27:07.297Z,12.46
2023-10-27T10:29:39.218Z,12.49
2023-10-27T10:32:35.353Z,12.51
2023-10-27T10:35:28.268Z,12.56
2023-10-27T10:38:36.950Z,12.61
2023-10-27T10:41:08.796Z,12.66
2023-10-27T10:43:42.226Z,12.71
2023-10-27T10:46:15.410Z,12.74
2023-10-27T10:48:48.509Z,12.79
2023-10-27T10:51:27.449Z,12.84
2023-10-27T10:53:59.559Z,12.88
2023-10-27T10:56:32.027Z,12.92
2023-10-27T10:59:05.244Z,12.97
2023-10-27T11:01:37.104Z,13.00
2023-10-27T11:04:09.296Z,13.04
2023-10-27T11:06:41.142Z,13.07
2023-10-27T11:09:12.967Z,13.10
2023-10-27T11:11:48.309Z,13.13
2023-10-27T11:14:20.426Z,13.15
2023-10-27T11:17:00.317Z,13.17
2023-10-27T11:19:32.178Z,13.17
2023-10-27T11:22:04.012Z,13.17
2023-10-27T11:24:47.011Z,13.18
2023-10-27T11:27:28.199Z,13.18
2023-10-27T11:30:04.539Z,13.18
2023-10-27T11:32:36.360Z,13.18
2023-10-27T11:35:09.113Z,13.18
2023-10-27T11:37:41.156Z,13.18
2023-10-27T11:40:19.590Z,13.19
2023-10-27T11:42:51.432Z,13.18
2023-10-27T11:45:23.229Z,13.19
2023-10-27T11:47:55.231Z,13.20
2023-10-27T11:50:27.258Z,13.20
2023-10-27T11:52:59.354Z,13.20
2023-10-27T11:55:32.254Z,13.19
2023-10-27T11:58:04.665Z,13.19
2023-10-27T12:00:36.483Z,13.18
2023-10-27T12:03:08.312Z,13.19
2023-10-27T12:05:40.347Z,13.19
2023-10-27T12:08:12.240Z,13.20
2023-10-27T12:10:44.471Z,13.21
2023-10-27T12:13:16.417Z,13.21
2023-10-27T12:15:48.926Z,13.23
2023-10-27T12:18:21.885Z,13.24
2023-10-27T12:20:53.806Z,13.25
2023-10-27T12:23:25.691Z,13.26
2023-10-27T12:25:57.695Z,13.27
2023-10-27T12:28:30.212Z,13.29
2023-10-27T12:31:03.341Z,13.30
2023-10-27T12:33:35.278Z,13.31
2023-10-27T12:36:12.007Z,13.32
2023-10-27T12:38:43.945Z,13.32
2023-10-27T12:41:15.704Z,13.33
2023-10-27T12:43:47.734Z,13.34
2023-10-27T12:46:19.590Z,13.34
2023-10-27T12:48:51.708Z,13.34
2023-10-27T12:51:23.868Z,13.34
2023-10-27T12:53:55.692Z,13.32
2023-10-27T12:56:27.554Z,13.31
2023-10-27T12:58:59.432Z,13.30
2023-10-27T13:01:31.296Z,13.29
2023-10-27T13:04:03.529Z,13.27
2023-10-27T13:06:37.616Z,13.26
2023-10-27T13:09:09.413Z,13.25
2023-10-27T13:11:41.277Z,13.25
2023-10-27T13:14:13.105Z,13.25
2023-10-27T13:16:45.089Z,13.24
2023-10-27T13:19:16.973Z,13.22
2023-10-27T13:21:48.865Z,13.22
2023-10-27T13:24:20.692Z,13.21
2023-10-27T13:26:53.964Z,13.19
2023-10-27T13:29:25.831Z,13.17
2023-10-27T13:31:57.772Z,13.16
2023-10-27T13:34:30.890Z,13.15
2023-10-27T13:37:03.234Z,13.13
2023-10-27T13:39:35.428Z,13.11
2023-10-27T13:42:07.815Z,13.09
2023-10-27T13:44:39.624Z,13.08
2023-10-27T13:47:11.964Z,13.06
2023-10-27T13:49:43.835Z,13.04
2023-10-27T13:52:15.775Z,13.02
2023-10-27T13:54:47.608Z,12.99
2023-10-27T13:57:20.876Z,12.97
2023-10-27T13:59:53.289Z,12.96
2023-10-27T14:02:25.462Z,12.95
2023-10-27T14:04:57.540Z,12.94
2023-10-27T14:07:29.515Z,12.94
2023-10-27T14:10:01.414Z,12.94
2023-10-27T14:12:33.279Z,12.94
2023-10-27T14:15:05.760Z,12.92
2023-10-27T14:17:37.569Z,12.91
2023-10-27T14:20:10.919Z,12.89
2023-10-27T14:22:42.756Z,12.88
2023-10-27T14:25:14.707Z,12.86
2023-10-27T14:27:48.787Z,12.84
2023-10-27T14:30:20.900Z,12.81
2023-10-27T14:32:52.782Z,12.79
2023-10-27T14:35:24.699Z,12.78
2023-10-27T14:37:56.970Z,12.76
2023-10-27T14:40:28.856Z,12.75
2023-10-27T14:43:02.676Z,12.74
2023-10-27T14:45:34.579Z,12.72
2023-10-27T14:48:07.643Z,12.71
2023-10-27T14:50:39.796Z,12.69
2023-10-27T14:53:11.644Z,12.67
2023-10-27T14:55:43.559Z,12.65
2023-10-27T14:58:15.577Z,12.64
2023-10-27T15:00:47.468Z,12.64
2023-10-27T15:03:19.338Z,12.66
2023-10-27T15:05:51.276Z,12.67
2023-10-27T15:08:23.240Z,12.66
2023-10-27T15:10:59.377Z,12.66
2023-10-27T15:13:32.210Z,12.66
2023-10-27T15:16:09.322Z,12.65
2023-10-27T15:18:43.219Z,12.63
2023-10-27T15:21:16.413Z,12.61
2023-10-27T15:23:52.317Z,12.59
2023-10-27T15:26:24.997Z,12.57
2023-10-27T15:28:57.124Z,12.53
2023-10-27T15:31:30.351Z,12.49
2023-10-27T15:34:02.555Z,12.46
2023-10-27T15:36:35.191Z,12.44
2023-10-27T15:39:09.360Z,12.41
2023-10-27T15:41:41.650Z,12.39
2023-10-27T15:44:13.513Z,12.37
2023-10-27T15:46:46.982Z,12.35
2023-10-27T15:49:18.894Z,12.32
2023-10-27T15:51:50.767Z,12.32
2023-10-27T15:54:22.960Z,12.30
2023-10-27T15:56:56.142Z,12.28
2023-10-27T15:59:28.562Z,12.25
2023-10-27T16:02:01.692Z,12.23
2023-10-27T16:04:34.485Z,12.21
2023-10-27T16:07:10.918Z,12.21
2023-10-27T16:09:43.649Z,12.18
2023-10-27T16:12:16.845Z,12.17
2023-10-27T16:14:48.760Z,12.16
2023-10-27T16:17:20.624Z,12.16
2023-10-27T16:19:52.564Z,12.14
2023-10-27T16:22:24.440Z,12.12
2023-10-27T16:24:56.310Z,12.12
2023-10-27T16:27:29.691Z,12.12
2023-10-27T16:30:01.682Z,12.12
2023-10-27T16:32:33.661Z,12.11
2023-10-27T16:35:07.879Z,12.10
2023-10-27T16:37:40.121Z,12.10
2023-10-27T16:40:14.335Z,12.09
2023-10-27T16:42:47.140Z,12.09
2023-10-27T16:45:19.323Z,12.08
2023-10-27T16:47:51.662Z,12.09
2023-10-27T16:50:24.649Z,12.07
2023-10-27T16:52:56.601Z,12.06
2023-10-27T16:55:31.807Z,12.05
2023-10-27T16:58:05.283Z,12.05
2023-10-27T17:00:37.172Z,12.05
2023-10-27T17:03:09.153Z,12.04
2023-10-27T17:05:41.071Z,12.03
2023-10-27T17:08:13.361Z,12.04
2023-10-27T17:10:45.325Z,12.04
2023-10-27T17:13:17.589Z,12.05
2023-10-27T17:15:49.464Z,12.05
2023-10-27T17:18:21.324Z,12.03
2023-10-27T17:20:53.528Z,12.03
2023-10-27T17:23:25.566Z,12.02
2023-10-27T17:26:00.494Z,12.01
2023-10-27T17:28:32.648Z,11.98
2023-10-27T17:31:05.085Z,11.97
2023-10-27T17:33:39.357Z,11.95
2023-10-27T17:36:15.414Z,11.94
2023-10-27T17:38:47.353Z,11.92
2023-10-27T17:41:19.642Z,11.93
2023-10-27T17:43:52.065Z,11.92
2023-10-27T17:46:24.177Z,11.91
2023-10-27T17:48:56.485Z,11.91
2023-10-27T17:51:29.635Z,11.89
2023-10-27T17:54:01.806Z,11.89
2023-10-27T17:56:34.860Z,11.86
2023-10-27T17:59:07.091Z,11.84
2023-10-27T18:01:39.101Z,11.82
2023-10-27T18:04:11.406Z,11.81
2023-10-27T18:06:45.409Z,11.79
2023-10-27T18:09:20.298Z,11.76
2023-10-27T18:11:53.278Z,11.74
2023-10-27T18:14:25.877Z,11.73
2023-10-27T18:16:57.934Z,11.71
2023-10-27T18:19:29.889Z,11.70
2023-10-27T18:22:02.219Z,11.68
2023-10-27T18:24:35.669Z,11.65
2023-10-27T18:27:08.337Z,11.63
2023-10-27T18:29:42.709Z,11.62
2023-10-27T18:32:14.542Z,11.60
2023-10-27T18:34:46.565Z,11.54
2023-10-27T18:37:18.528Z,11.52
2023-10-27T18:39:50.514Z,11.50
2023-10-27T18:42:22.821Z,11.49
2023-10-27T18:44:55.337Z,11.46
2023-10-27T18:47:28.780Z,11.43
2023-10-27T18:50:01.633Z,11.41
2023-10-27T18:52:34.230Z,11.40
2023-10-27T18:55:10.155Z,11.39
2023-10-27T18:57:43.417Z,11.38
2023-10-27T19:00:20.903Z,11.37
2023-10-27T19:02:53.294Z,11.35
2023-10-27T19:05:25.358Z,11.36
2023-10-27T19:07:58.600Z,11.37
2023-10-27T19:10:31.077Z,11.36
2023-10-27T19:13:03.177Z,11.37
2023-10-27T19:15:35.228Z,11.39
2023-10-27T19:18:07.329Z,11.38
2023-10-27T19:20:39.427Z,11.38
2023-10-27T19:23:11.584Z,11.38
2023-10-27T19:25:43.999Z,11.37
2023-10-27T19:28:16.536Z,11.36
2023-10-27T19:30:53.523Z,11.37
2023-10-27T19:33:24.707Z,11.36
2023-10-27T19:35:57.073Z,11.36
2023-10-27T19:38:29.782Z,11.34
2023-10-27T19:41:02.011Z,11.34
2023-10-27T19:43:34.002Z,11.33
2023-10-27T19:46:07.857Z,11.31
2023-10-27T19:48:40.722Z,11.28
2023-10-27T19:51:13.932Z,11.27
2023-10-27T19:53:46.635Z,11.27
2023-10-27T19:56:18.983Z,11.25
2023-10-27T19:58:52.246Z,11.24
2023-10-27T20:01:28.713Z,11.23
2023-10-27T20:04:07.851Z,11.24
2023-10-27T20:06:41.181Z,11.23
2023-10-27T20:09:14.030Z,11.22
2023-10-27T20:11:46.519Z,11.22
2023-10-27T20:14:18.336Z,11.22
2023-10-27T20:16:50.190Z,11.22
2023-10-27T20:19:23.353Z,11.23
2023-10-27T20:21:55.208Z,11.23
2023-10-27T20:24:27.043Z,11.25
2023-10-27T20:26:59.254Z,11.26
2023-10-27T20:29:31.239Z,11.26
2023-10-27T20:32:03.794Z,11.27
2023-10-27T20:34:36.404Z,11.27
2023-10-27T20:37:10.212Z,11.27
2023-10-27T20:39:42.436Z,11.28
2023-10-27T20:42:14.669Z,11.28
2023-10-27T20:44:47.616Z,11.29
2023-10-27T20:47:20.202Z,11.30
2023-10-27T20:49:53.116Z,11.30
2023-10-27T20:52:27.629Z,11.30
2023-10-27T20:55:00.301Z,11.30
2023-10-27T20:57:32.302Z,11.32
2023-10-27T21:00:05.918Z,11.32
2023-10-27T21:02:38.334Z,11.32
2023-10-27T21:05:11.222Z,11.31
2023-10-27T21:07:43.797Z,11.31
2023-10-27T21:10:16.602Z,11.31
2023-10-27T21:12:48.541Z,11.33
2023-10-27T21:15:21.016Z,11.32
2023-10-27T21:17:52.912Z,11.32
2023-10-27T21:20:25.201Z,11.30
2023-10-27T21:22:57.343Z,11.29
2023-10-27T21:25:32.850Z,11.29
2023-10-27T21:28:06.624Z,11.29
2023-10-27T21:30:38.615Z,11.31
2023-10-27T21:33:12.452Z,11.31
2023-10-27T21:35:44.423Z,11.31
2023-10-27T21:38:16.238Z,11.32
2023-10-27T21:40:48.086Z,11.31
2023-10-27T21:43:20.002Z,11.31
2023-10-27T21:45:52.068Z,11.30
2023-10-27T21:48:25.265Z,11.29
2023-10-27T21:51:05.918Z,11.29
2023-10-27T21:53:38.269Z,11.30
2023-10-27T21:56:11.779Z,11.29
2023-10-27T21:58:44.232Z,11.27
2023-10-27T22:01:17.742Z,11.27
2023-10-27T22:03:52.594Z,11.26
2023-10-27T22:06:30.610Z,11.27
2023-10-27T22:09:02.690Z,11.29
2023-10-27T22:11:34.677Z,11.29
2023-10-27T22:14:08.578Z,11.30
2023-10-27T22:16:41.172Z,11.31
2023-10-27T22:19:13.399Z,11.32
2023-10-27T22:21:46.371Z,11.32
2023-10-27T22:24:18.437Z,11.33
2023-10-27T22:26:50.314Z,11.32
2023-10-27T22:29:22.650Z,11.30
2023-10-27T22:31:54.568Z,11.29
2023-10-27T22:34:26.783Z,11.28
2023-10-27T22:36:58.603Z,11.25
2023-10-27T22:39:31.194Z,11.25
2023-10-27T22:42:03.608Z,11.26
2023-10-27T22:44:35.467Z,11.25
2023-10-27T22:47:07.747Z,11.25
2023-10-27T22:49:39.742Z,11.24
2023-10-27T22:52:11.657Z,11.23
2023-10-27T22:54:43.605Z,11.22
2023-10-27T22:57:15.489Z,11.22
2023-10-27T22:59:50.708Z,11.21
2023-10-27T23:02:22.936Z,11.20
2023-10-27T23:04:56.232Z,11.20
2023-10-27T23:07:29.338Z,11.19
2023-10-27T23:10:01.874Z,11.18
2023-10-27T23:12:33.932Z,11.18
2023-10-27T23:15:06.946Z,11.19
2023-10-27T23:17:39.342Z,11.17
2023-10-27T23:20:13.899Z,11.18
2023-10-27T23:22:46.136Z,11.19
2023-10-27T23:25:20.688Z,11.18
2023-10-27T23:27:52.661Z,11.17
2023-10-27T23:30:24.533Z,11.14
2023-10-27T23:32:56.571Z,11.12
2023-10-27T23:35:28.931Z,11.09
2023-10-27T23:38:01.095Z,11.09
2023-10-27T23:40:33.222Z,11.08
2023-10-27T23:43:06.321Z,11.07
2023-10-27T23:45:38.231Z,11.05
2023-10-27T23:48:10.373Z,11.04
2023-10-27T23:50:42.368Z,11.02
2023-10-27T23:53:14.364Z,11.02
2023-10-27T23:55:46.741Z,11.01
2023-10-27T23:58:18.763Z,10.99
